Flight Track Log - Related Links

Times and Time Zones

All times are in EST time to prevent confusion due to time zone crossing. See the FIN666 flight status page for this flight to view local times or setup timezone preferences in your user account.

Time Position Orientation Groundspeed Altitude Reporting Facility
EST Latitude Longitude Course Direction KTS MPH feet Rate Location/Type
Sun 07:24:00 AM 55.8329 13.1000 49° Northeast  Level Estimated
Sun 07:25:00 AM 55.9042 13.2491 50° Northeast  Level Estimated
Sun 07:26:00 AM 55.9753 13.3988 50° Northeast  Level Estimated
Sun 07:27:00 AM 56.0472 13.5511 50° Northeast  Level Estimated
Sun 07:28:00 AM 56.1189 13.7039 50° Northeast  Level Estimated
Sun 07:29:00 AM 56.1904 13.8574 50° Northeast  Level Estimated
Sun 07:30:00 AM 56.2618 14.0114 50° Northeast  Level Estimated
Sun 07:31:00 AM 56.3329 14.1660 50° Northeast  Level Estimated
Sun 07:32:00 AM 56.4039 14.3211 50° Northeast  Level Estimated
Sun 07:33:00 AM 56.4747 14.4768 51° Northeast  Level Estimated
Sun 07:34:00 AM 56.5452 14.6332 51° Northeast  Level Estimated
Sun 07:35:00 AM 56.6156 14.7901 51° Northeast  Level Estimated
Sun 07:36:00 AM 56.6858 14.9475 51° Northeast  Level Estimated
Sun 07:37:00 AM 56.7558 15.1056 51° Northeast  Level Estimated
Sun 07:38:00 AM 56.8255 15.2643 51° Northeast  Level Estimated
Sun 07:39:00 AM 56.8951 15.4235 51° Northeast  Level Estimated
Sun 07:40:00 AM 56.9645 15.5834 51° Northeast  Level Estimated
Sun 07:41:00 AM 57.0336 15.7438 52° Northeast  Level Estimated
Sun 07:42:00 AM 57.1026 15.9049 52° Northeast  Level Estimated
Sun 07:43:00 AM 57.1713 16.0665 52° Northeast  Level Estimated
Sun 07:44:00 AM 57.2399 16.2288 52° Northeast  Level Estimated
Sun 07:45:00 AM 57.3082 16.3916 52° Northeast  Level Estimated
Sun 07:46:00 AM 57.3773 16.5574 52° Northeast  Level Estimated
Sun 07:47:00 AM 57.4462 16.7237 52° Northeast  Level Estimated
Sun 07:48:00 AM 57.5148 16.8907 53° Northeast  Level Estimated
Sun 07:49:00 AM 57.5832 17.0584 53° Northeast  Level Estimated
Sun 07:50:00 AM 57.6514 17.2266 53° Northeast  Level Estimated
Sun 07:51:00 AM 57.7194 17.3955 53° Northeast  Level Estimated
Sun 07:52:00 AM 57.7872 17.5651 53° Northeast  Level Estimated
Sun 07:53:00 AM 57.8547 17.7352 53° Northeast  Level Estimated
Sun 07:54:00 AM 57.9220 17.9060 53° Northeast  Level Estimated
Sun 07:55:00 AM 57.9890 18.0775 54° Northeast  Level Estimated
Sun 07:56:00 AM 58.0559 18.2496 54° Northeast  Level Estimated
Sun 07:57:00 AM 58.1225 18.4223 54° Northeast  Level Estimated
Sun 07:58:00 AM 58.1888 18.5957 54° Northeast  Level Estimated
Sun 07:59:00 AM 58.2549 18.7697 54° Northeast  Level Estimated
Sun 08:00:00 AM 58.3208 18.9444 54° Northeast  Level Estimated
Sun 08:01:00 AM 58.3865 19.1197 54° Northeast  Level Estimated
Sun 08:02:00 AM 58.4519 19.2957 55° Northeast  Level Estimated
Sun 08:03:00 AM 58.5171 19.4723 55° Northeast  Level Estimated
Sun 08:04:00 AM 58.5820 19.6496 55° Northeast  Level Estimated
Sun 08:05:00 AM 58.6467 19.8276 55° Northeast  Level Estimated
Sun 08:06:00 AM 58.7111 20.0062 55° Northeast  Level Estimated
Sun 08:07:00 AM 58.7753 20.1855 55° Northeast  Level Estimated
Sun 08:08:00 AM 58.8392 20.3654 55° Northeast  Level Estimated
Sun 08:09:00 AM 58.9029 20.5460 56° Northeast  Level Estimated
Sun 08:10:00 AM 58.9663 20.7272 56° Northeast  Level Estimated
Sun 08:11:00 AM 59.0295 20.9092 56° Northeast  Level Estimated
Sun 08:12:00 AM 59.0924 21.0918 56° Northeast  Level Estimated
Sun 08:13:00 AM 59.1551 21.2750 56° Northeast  Level Estimated
Sun 08:14:00 AM 59.2175 21.4590 56° Northeast  Level Estimated
Sun 08:15:00 AM 59.2797 21.6436 57° Northeast  Level Estimated
Sun 08:16:00 AM 59.3415 21.8289 57° Northeast  Level Estimated
Sun 08:17:00 AM 59.4032 22.0148 57° Northeast  Level Estimated
Sun 08:18:00 AM 59.4645 22.2015 57° Northeast  Level Estimated
Sun 08:19:00 AM 59.5256 22.3888 57° Northeast  Level Estimated
Sun 08:20:00 AM 59.5864 22.5768 57° Northeast  Level Estimated
Sun 08:21:00 AM 59.6470 22.7654 58° Northeast  Level Estimated
Sun 08:22:00 AM 59.7072 22.9548 58° Northeast  Level Estimated
Sun 08:23:00 AM 59.7673 23.1448 58° Northeast  Level Estimated
Sun 08:24:00 AM 59.8270 23.3355 58° Northeast  Level Estimated
Sun 08:25:00 AM 59.8864 23.5269 58° Northeast  Level Estimated
Sun 08:26:00 AM 59.9456 23.7190 58° Northeast  Level Estimated
Sun 08:27:00 AM 60.0045 23.9118 59° Northeast  Level Estimated
Sun 08:28:00 AM 60.0631 24.1052 59° Northeast  Level Estimated
Sun 08:29:00 AM 60.1214 24.2994 59° Northeast  Level Estimated
Sun 08:30:00 AM 60.1795 24.4942 59° Northeast  Level Estimated
Sun 08:31:00 AM 60.2372 24.6897 59° Northeast  Level Estimated
Sun 08:32:00 AM 60.2947 24.8859 59° Northeast  Level Estimated
Sun 08:33:00 AM 60.3172 24.9633 60° Northeast  Level Estimated
Sun 08:34:00 AM 60.3172 24.9633 North  Level Estimated
Sun 08:35:00 AM 60.3172 24.9633 North  Level Estimated
Sun 08:36:00 AM 60.3172 24.9633 North  Level Estimated
Sun 08:37:00 AM 60.3172 24.9633 North  Level Estimated
Sun 08:38:00 AM 60.3172 24.9633 North  Level Estimated
Sun 08:39:00 AM 60.3172 24.9633 North  Level Estimated
Sun 08:40:00 AM 60.3172 24.9633 North  Level Estimated
Sun 08:41:00 AM 60.3172 24.9633 North  Level Estimated
Sun 08:42:00 AM 60.3172 24.9633 North  Level Estimated
Sun 08:43:00 AM 60.3172 24.9633 North  Level Estimated
Sun 08:44:00 AM 60.3172 24.9633 North  Level Estimated
Sun 08:45:00 AM 60.3172 24.9633 North  Level Estimated

Login

Don't have an account? Register now (free) for customized features, flight alerts, and more!